Time;durP1;ratioP1;P1;durP2;ratioP2;P2;SDS_P1;SDS_P2;PMS_P1;PMS_P2;Temp;Humidity;BMP_temperature;BMP_pressure;BME280_temperature;BME280_humidity;BME280_pressure;Samples;Min_cycle;Max_cycle;Signal;HPM_P1;HPM_P2
2021/04/19 00:00:30;;;;;;;31.20;25.23;;;;;;;;;;5011691;28;20453;-67
2021/04/19 00:02:57;;;;;;;31.13;26.93;;;;;;;;;;5011142;28;20457;-67
2021/04/19 00:05:23;;;;;;;33.37;29.13;;;;;;;;;;5010098;28;20481;-67
2021/04/19 00:07:50;;;;;;;40.60;30.27;;;;;;;;;;5011679;28;20689;-66
2021/04/19 00:10:17;;;;;;;33.00;29.43;;;;;;;;;;5011486;28;20481;-67
2021/04/19 00:12:44;;;;;;;36.20;30.73;;;;;;;;;;5015314;28;20803;-66
2021/04/19 00:15:12;;;;;;;32.73;27.83;;;;;;;;;;5014641;28;20489;-67
2021/04/19 00:17:39;;;;;;;32.37;28.90;;;;;;;;;;5014914;28;20462;-66
2021/04/19 00:20:07;;;;;;;35.13;31.33;;;;;;;;;;4995894;28;21069;-67
2021/04/19 00:22:34;;;;;;;34.40;30.87;;;;;;;;;;5004993;28;20454;-66
2021/04/19 00:25:01;;;;;;;34.43;30.73;;;;;;;;;;5014511;28;21050;-67
2021/04/19 00:27:27;;;;;;;38.23;34.07;;;;;;;;;;5014894;28;20449;-67
2021/04/19 00:29:54;;;;;;;37.33;33.37;;;;;;;;;;5014711;28;20450;-67
2021/04/19 00:32:21;;;;;;;36.07;31.90;;;;;;;;;;5015180;28;20450;-66
2021/04/19 00:34:48;;;;;;;37.00;31.90;;;;;;;;;;5014541;28;20477;-66
2021/04/19 00:37:15;;;;;;;37.57;31.90;;;;;;;;;;5014766;28;20540;-67
2021/04/19 00:39:42;;;;;;;40.13;32.90;;;;;;;;;;5014538;28;20980;-67
2021/04/19 00:42:09;;;;;;;34.57;30.00;;;;;;;;;;5014663;28;20508;-66
2021/04/19 00:44:35;;;;;;;41.60;33.90;;;;;;;;;;5014640;28;20523;-67
2021/04/19 00:47:02;;;;;;;41.17;32.10;;;;;;;;;;5014733;28;20446;-66
2021/04/19 00:49:30;;;;;;;41.27;32.00;;;;;;;;;;5014861;28;20446;-66
2021/04/19 00:51:58;;;;;;;34.73;30.93;;;;;;;;;;5014625;28;20456;-66
2021/04/19 00:54:24;;;;;;;37.37;30.70;;;;;;;;;;5013957;28;20473;-66
2021/04/19 00:56:51;;;;;;;37.37;32.13;;;;;;;;;;5014276;28;20492;-66
2021/04/19 00:59:18;;;;;;;37.07;33.07;;;;;;;;;;5014487;28;20453;-67
2021/04/19 01:01:48;;;;;;;40.03;32.97;;;;;;;;;;5014460;28;20457;-67
2021/04/19 01:04:14;;;;;;;33.27;29.63;;;;;;;;;;5014986;28;20492;-66
2021/04/19 01:06:42;;;;;;;39.50;31.83;;;;;;;;;;5013832;28;20450;-66
2021/04/19 01:09:09;;;;;;;38.17;32.80;;;;;;;;;;5014296;28;20641;-66
2021/04/19 01:11:36;;;;;;;39.43;32.83;;;;;;;;;;5014069;28;20960;-66
2021/04/19 01:14:03;;;;;;;42.43;33.03;;;;;;;;;;5014250;28;20477;-67
2021/04/19 01:16:30;;;;;;;37.50;32.83;;;;;;;;;;5013822;28;20483;-68
2021/04/19 01:18:57;;;;;;;40.80;34.90;;;;;;;;;;5014121;28;20469;-65
2021/04/19 01:21:24;;;;;;;43.33;33.80;;;;;;;;;;5019999;28;20946;-67
2021/04/19 01:23:51;;;;;;;45.37;34.13;;;;;;;;;;5013750;28;20448;-66
2021/04/19 01:26:17;;;;;;;42.00;35.80;;;;;;;;;;5013831;28;20446;-66
2021/04/19 01:28:44;;;;;;;41.70;35.17;;;;;;;;;;5013770;28;20454;-67
2021/04/19 01:31:11;;;;;;;43.60;36.33;;;;;;;;;;5021552;28;20506;-67
2021/04/19 01:33:37;;;;;;;43.73;36.70;;;;;;;;;;5013920;28;20457;-66
2021/04/19 01:36:05;;;;;;;42.30;36.63;;;;;;;;;;5013838;28;20508;-67
2021/04/19 01:38:32;;;;;;;44.90;38.30;;;;;;;;;;5013782;28;21007;-66
2021/04/19 01:40:59;;;;;;;43.20;35.43;;;;;;;;;;5013372;28;20449;-67
2021/04/19 01:43:26;;;;;;;41.73;35.43;;;;;;;;;;5013552;28;20488;-66
2021/04/19 01:45:52;;;;;;;42.77;35.70;;;;;;;;;;5017685;28;20469;-66
2021/04/19 01:48:20;;;;;;;46.80;36.97;;;;;;;;;;5024416;28;20454;-66
2021/04/19 01:50:48;;;;;;;41.60;36.53;;;;;;;;;;5013352;28;20460;-66
2021/04/19 01:53:15;;;;;;;49.60;40.90;;;;;;;;;;5013059;28;20845;-67
2021/04/19 01:55:42;;;;;;;43.87;38.00;;;;;;;;;;5013609;28;20543;-67
2021/04/19 01:58:10;;;;;;;45.37;39.53;;;;;;;;;;5013362;28;20453;-66
2021/04/19 02:00:38;;;;;;;48.97;36.50;;;;;;;;;;5025147;28;20859;-67
2021/04/19 02:03:09;;;;;;;43.43;37.33;;;;;;;;;;5020719;28;20454;-67
2021/04/19 02:05:41;;;;;;;49.23;37.77;;;;;;;;;;5013079;28;20905;-66
2021/04/19 02:08:10;;;;;;;41.43;36.23;;;;;;;;;;5012971;28;20450;-66
2021/04/19 02:10:41;;;;;;;46.97;38.37;;;;;;;;;;5013233;28;20454;-68
2021/04/19 02:13:12;;;;;;;41.53;35.57;;;;;;;;;;5013053;28;20512;-66
2021/04/19 02:15:45;;;;;;;40.63;36.20;;;;;;;;;;5013117;28;20500;-65
2021/04/19 02:18:13;;;;;;;43.17;36.50;;;;;;;;;;5013175;28;20468;-66
2021/04/19 02:20:44;;;;;;;41.83;35.10;;;;;;;;;;5013390;28;20453;-67
2021/04/19 02:23:16;;;;;;;47.23;38.63;;;;;;;;;;5012884;28;20456;-67
2021/04/19 02:25:43;;;;;;;41.60;37.10;;;;;;;;;;5012650;28;20478;-67
2021/04/19 02:28:14;;;;;;;48.47;37.20;;;;;;;;;;5012453;28;20453;-67
2021/04/19 02:30:42;;;;;;;46.50;37.57;;;;;;;;;;5012872;28;20458;-66
2021/04/19 02:33:12;;;;;;;52.17;40.73;;;;;;;;;;5013077;28;20453;-67
2021/04/19 02:35:41;;;;;;;48.30;41.37;;;;;;;;;;5012317;28;20489;-65
2021/04/19 02:38:09;;;;;;;45.67;39.40;;;;;;;;;;5012801;28;20457;-66
2021/04/19 02:40:36;;;;;;;47.33;39.33;;;;;;;;;;5012338;28;20948;-66
2021/04/19 02:43:03;;;;;;;51.30;41.53;;;;;;;;;;5012864;28;20458;-65
2021/04/19 02:45:31;;;;;;;53.30;40.93;;;;;;;;;;5012330;28;20474;-67
2021/04/19 02:47:58;;;;;;;52.97;40.43;;;;;;;;;;5012680;28;20453;-67
2021/04/19 02:50:25;;;;;;;51.80;41.90;;;;;;;;;;5013348;28;20450;-66
2021/04/19 02:52:52;;;;;;;50.80;42.00;;;;;;;;;;5012111;28;20452;-66
2021/04/19 02:55:20;;;;;;;48.47;41.00;;;;;;;;;;4997140;28;20469;-66
2021/04/19 02:57:48;;;;;;;62.27;43.70;;;;;;;;;;5012894;28;20453;-67
2021/04/19 03:00:16;;;;;;;48.30;42.43;;;;;;;;;;5017989;28;20549;-67
2021/04/19 03:02:44;;;;;;;51.97;41.00;;;;;;;;;;5022782;28;20456;-67
2021/04/19 03:05:12;;;;;;;50.43;40.57;;;;;;;;;;5021800;28;20503;-67
2021/04/19 03:07:41;;;;;;;53.70;41.93;;;;;;;;;;5023119;28;20454;-67
2021/04/19 03:10:10;;;;;;;46.40;41.30;;;;;;;;;;5023255;28;20966;-67
2021/04/19 03:12:37;;;;;;;48.17;41.13;;;;;;;;;;5020197;28;20462;-68
2021/04/19 03:15:06;;;;;;;50.30;38.93;;;;;;;;;;5012292;28;20476;-66
2021/04/19 03:17:33;;;;;;;49.60;41.20;;;;;;;;;;5011813;28;20446;-66
2021/04/19 03:20:03;;;;;;;46.93;40.40;;;;;;;;;;5012775;28;20476;-67
2021/04/19 03:22:30;;;;;;;44.17;37.40;;;;;;;;;;5012255;28;20453;-67
2021/04/19 03:24:58;;;;;;;50.13;41.37;;;;;;;;;;5012186;28;20532;-67
2021/04/19 03:27:26;;;;;;;49.57;39.57;;;;;;;;;;5011516;28;20850;-66
2021/04/19 03:29:52;;;;;;;55.10;41.90;;;;;;;;;;5012402;28;20450;-66
2021/04/19 03:32:20;;;;;;;43.83;37.70;;;;;;;;;;5010954;28;20484;-67
2021/04/19 03:34:47;;;;;;;47.23;40.37;;;;;;;;;;5012149;28;20466;-66
2021/04/19 03:37:17;;;;;;;46.60;37.67;;;;;;;;;;5011289;28;20485;-66
2021/04/19 03:39:44;;;;;;;50.67;41.87;;;;;;;;;;5023410;28;20452;-67
2021/04/19 03:42:11;;;;;;;50.17;40.80;;;;;;;;;;5015126;28;20501;-67
2021/04/19 03:44:39;;;;;;;55.20;40.67;;;;;;;;;;5010999;28;20845;-66
2021/04/19 03:47:06;;;;;;;53.53;42.93;;;;;;;;;;5011186;28;20472;-66
2021/04/19 03:49:35;;;;;;;57.53;41.93;;;;;;;;;;5011395;28;20453;-64
2021/04/19 03:52:03;;;;;;;51.03;40.47;;;;;;;;;;4998800;28;20477;-66
2021/04/19 03:54:32;;;;;;;49.33;40.70;;;;;;;;;;5011168;28;20536;-67
2021/04/19 03:56:59;;;;;;;47.30;38.03;;;;;;;;;;5013577;28;20477;-66
2021/04/19 03:59:26;;;;;;;45.90;38.87;;;;;;;;;;5011498;28;20945;-67
2021/04/19 04:01:52;;;;;;;46.07;36.70;;;;;;;;;;5011613;28;20462;-67
2021/04/19 04:04:20;;;;;;;53.97;38.93;;;;;;;;;;5011043;28;20860;-66
2021/04/19 04:06:47;;;;;;;61.93;47.77;;;;;;;;;;5010883;28;20454;-67
2021/04/19 04:09:14;;;;;;;56.67;48.30;;;;;;;;;;5011973;28;20500;-66
2021/04/19 04:11:42;;;;;;;61.23;50.53;;;;;;;;;;5011833;28;20564;-66
2021/04/19 04:14:09;;;;;;;58.90;52.43;;;;;;;;;;5030328;28;20460;-65
2021/04/19 04:16:39;;;;;;;60.27;50.87;;;;;;;;;;5003174;28;20491;-66
2021/04/19 04:19:06;;;;;;;62.50;50.20;;;;;;;;;;5011757;28;20449;-66
2021/04/19 04:21:33;;;;;;;61.57;52.93;;;;;;;;;;5011797;28;20449;-67
2021/04/19 04:23:59;;;;;;;72.93;53.80;;;;;;;;;;5011297;28;20477;-67
2021/04/19 04:26:27;;;;;;;55.80;49.70;;;;;;;;;;5011140;28;20442;-66
2021/04/19 04:28:55;;;;;;;63.47;54.37;;;;;;;;;;5011204;28;20500;-67
2021/04/19 04:31:21;;;;;;;60.80;51.30;;;;;;;;;;5011887;28;20507;-67
2021/04/19 04:33:48;;;;;;;58.37;51.87;;;;;;;;;;5009335;28;22634;-66
2021/04/19 04:36:16;;;;;;;57.37;49.47;;;;;;;;;;5010883;28;20992;-67
2021/04/19 04:38:43;;;;;;;58.90;46.87;;;;;;;;;;5010900;28;20823;-66
2021/04/19 04:41:10;;;;;;;55.57;46.77;;;;;;;;;;4991759;28;20581;-66
2021/04/19 04:43:37;;;;;;;58.00;51.43;;;;;;;;;;4991156;28;20465;-66
2021/04/19 04:46:07;;;;;;;67.57;55.07;;;;;;;;;;5011178;28;20470;-66
2021/04/19 04:48:39;;;;;;;70.30;58.03;;;;;;;;;;5010985;28;21075;-66
2021/04/19 04:51:09;;;;;;;64.17;54.97;;;;;;;;;;5010727;28;20445;-67
2021/04/19 04:53:37;;;;;;;64.60;51.97;;;;;;;;;;5010435;28;20449;-67
2021/04/19 04:56:04;;;;;;;66.43;51.67;;;;;;;;;;5011272;28;20523;-67
2021/04/19 04:58:32;;;;;;;58.17;49.93;;;;;;;;;;5013301;28;20948;-67
2021/04/19 05:00:59;;;;;;;55.83;49.80;;;;;;;;;;5014709;28;20821;-67
2021/04/19 05:03:28;;;;;;;54.60;45.67;;;;;;;;;;5014206;28;20458;-67
2021/04/19 05:05:55;;;;;;;57.30;48.57;;;;;;;;;;5013785;28;21019;-66
2021/04/19 05:08:21;;;;;;;63.50;48.43;;;;;;;;;;5051047;22;20507;-65
2021/04/19 05:10:48;;;;;;;56.97;48.77;;;;;;;;;;5034000;28;20436;-66
2021/04/19 05:13:15;;;;;;;66.60;51.20;;;;;;;;;;5033794;28;20448;-66
2021/04/19 05:15:44;;;;;;;61.80;52.07;;;;;;;;;;5032929;28;20530;-66
2021/04/19 05:18:12;;;;;;;66.07;52.80;;;;;;;;;;5015645;28;20470;-66
2021/04/19 05:20:39;;;;;;;69.47;52.77;;;;;;;;;;5013696;28;20456;-66
2021/04/19 05:23:06;;;;;;;63.63;52.03;;;;;;;;;;5008407;28;20454;-65
2021/04/19 05:25:33;;;;;;;62.83;52.00;;;;;;;;;;5014116;28;20449;-64
2021/04/19 05:28:00;;;;;;;68.70;50.83;;;;;;;;;;5011820;28;20473;-65
2021/04/19 05:30:27;;;;;;;58.47;40.83;;;;;;;;;;4994605;28;20450;-66
2021/04/19 05:32:54;;;;;;;52.23;38.77;;;;;;;;;;5009040;28;20454;-64
2021/04/19 05:35:21;;;;;;;12.63;8.83;;;;;;;;;;5007521;28;20454;-64
2021/04/19 05:37:49;;;;;;;10.03;8.40;;;;;;;;;;5009055;28;20517;-61
2021/04/19 05:40:16;;;;;;;14.20;10.80;;;;;;;;;;5013533;28;20473;-61
2021/04/19 05:42:43;;;;;;;12.50;11.20;;;;;;;;;;5013264;28;20800;-61
2021/04/19 05:45:10;;;;;;;10.60;9.60;;;;;;;;;;4995834;28;20462;-61
2021/04/19 05:47:37;;;;;;;11.57;10.57;;;;;;;;;;4996548;28;20463;-61
2021/04/19 05:50:04;;;;;;;12.27;11.17;;;;;;;;;;5014190;28;20545;-61
2021/04/19 05:52:31;;;;;;;12.50;11.40;;;;;;;;;;5011590;28;20465;-62
2021/04/19 05:54:59;;;;;;;9.47;8.67;;;;;;;;;;5008863;28;20465;-61
2021/04/19 05:57:30;;;;;;;8.60;7.70;;;;;;;;;;5013155;28;20493;-61
2021/04/19 06:00:00;;;;;;;7.70;7.00;;;;;;;;;;5013717;28;20454;-62
2021/04/19 06:02:35;;;;;;;7.37;6.70;;;;;;;;;;5013525;28;20515;-61
2021/04/19 06:05:04;;;;;;;9.27;8.17;;;;;;;;;;4993861;28;20476;-61
2021/04/19 06:07:36;;;;;;;8.30;7.60;;;;;;;;;;5010326;28;20567;-62
2021/04/19 06:10:04;;;;;;;7.70;6.53;;;;;;;;;;5007486;28;20932;-60
2021/04/19 06:12:32;;;;;;;6.90;6.30;;;;;;;;;;5012931;28;20529;-60
2021/04/19 06:15:02;;;;;;;7.17;6.47;;;;;;;;;;5011467;28;20987;-59
2021/04/19 06:17:29;;;;;;;8.07;7.27;;;;;;;;;;5011748;28;20493;-60
2021/04/19 06:19:56;;;;;;;7.37;6.53;;;;;;;;;;5002291;28;20465;-61
2021/04/19 06:22:22;;;;;;;11.93;7.03;;;;;;;;;;5009372;28;20459;-62
2021/04/19 06:24:50;;;;;;;27.07;24.80;;;;;;;;;;5001990;28;20945;-64
2021/04/19 06:27:18;;;;;;;33.30;30.33;;;;;;;;;;5011089;28;20556;-67
2021/04/19 06:29:44;;;;;;;32.60;29.70;;;;;;;;;;5012408;28;20457;-66
2021/04/19 06:32:11;;;;;;;33.73;30.53;;;;;;;;;;5009207;28;20968;-66
2021/04/19 06:34:38;;;;;;;31.23;28.33;;;;;;;;;;5002734;28;20464;-66
2021/04/19 06:37:06;;;;;;;32.03;28.97;;;;;;;;;;4992848;28;20490;-67
2021/04/19 06:39:33;;;;;;;30.70;27.73;;;;;;;;;;5009542;28;20533;-65
2021/04/19 06:42:00;;;;;;;30.07;27.23;;;;;;;;;;5012742;28;20476;-65
2021/04/19 06:44:27;;;;;;;30.83;27.83;;;;;;;;;;5011786;28;20460;-66
2021/04/19 06:46:57;;;;;;;28.13;25.33;;;;;;;;;;5012319;28;20596;-64
2021/04/19 06:49:24;;;;;;;30.47;27.37;;;;;;;;;;5010201;28;21006;-65
2021/04/19 06:51:52;;;;;;;28.77;26.07;;;;;;;;;;5012892;28;20468;-65
2021/04/19 06:54:19;;;;;;;28.60;25.93;;;;;;;;;;5010764;28;20857;-64
2021/04/19 06:56:47;;;;;;;18.70;15.97;;;;;;;;;;5012102;28;20511;-65
2021/04/19 06:59:15;;;;;;;31.10;27.90;;;;;;;;;;5010833;28;20818;-65
2021/04/19 07:01:43;;;;;;;26.60;23.70;;;;;;;;;;4997461;28;20454;-64
2021/04/19 07:04:11;;;;;;;28.00;25.40;;;;;;;;;;5009907;28;20466;-64
2021/04/19 07:06:38;;;;;;;29.93;27.20;;;;;;;;;;5010160;28;20508;-64
2021/04/19 07:09:08;;;;;;;31.63;28.27;;;;;;;;;;5011917;28;20980;-66
2021/04/19 07:11:36;;;;;;;30.37;27.43;;;;;;;;;;5012297;28;20456;-64
2021/04/19 07:14:03;;;;;;;25.37;23.03;;;;;;;;;;5011154;28;20453;-65
2021/04/19 07:16:30;;;;;;;26.47;23.97;;;;;;;;;;5010636;28;20485;-65
2021/04/19 07:18:58;;;;;;;26.10;23.47;;;;;;;;;;4994245;28;20477;-65
2021/04/19 07:21:24;;;;;;;25.53;23.13;;;;;;;;;;5003447;28;20457;-65
2021/04/19 07:23:51;;;;;;;26.50;23.90;;;;;;;;;;5010722;28;20449;-65
2021/04/19 07:26:18;;;;;;;26.57;24.00;;;;;;;;;;5012724;28;20450;-65
2021/04/19 07:28:44;;;;;;;30.30;27.10;;;;;;;;;;5007896;28;20483;-65
2021/04/19 07:31:11;;;;;;;28.43;25.63;;;;;;;;;;5013355;28;20507;-64
2021/04/19 07:33:38;;;;;;;29.40;26.17;;;;;;;;;;4993039;28;20958;-65
2021/04/19 07:36:26;;;;;;;28.47;25.67;;;;;;;;;;4994170;28;20493;-64
2021/04/19 07:38:53;;;;;;;27.90;25.20;;;;;;;;;;4992398;28;20435;-64
2021/04/19 07:41:21;;;;;;;27.67;25.07;;;;;;;;;;5002057;28;20457;-65
2021/04/19 07:43:48;;;;;;;26.27;23.97;;;;;;;;;;5012015;28;20445;-64
2021/04/19 07:46:15;;;;;;;26.40;23.80;;;;;;;;;;5010055;28;20453;-65
2021/04/19 07:48:45;;;;;;;27.47;24.87;;;;;;;;;;4992043;28;20989;-64
2021/04/19 07:51:26;;;;;;;29.10;26.30;;;;;;;;;;4999853;28;20465;-64
2021/04/19 07:54:12;;;;;;;27.30;24.80;;;;;;;;;;4992160;28;20458;-65
2021/04/19 07:56:40;;;;;;;26.67;24.20;;;;;;;;;;5002613;28;20497;-64
2021/04/19 07:59:20;;;;;;;25.30;22.87;;;;;;;;;;5011344;28;20453;-65
2021/04/19 08:01:55;;;;;;;24.03;21.83;;;;;;;;;;5009782;28;20946;-65
2021/04/19 08:04:22;;;;;;;26.50;24.00;;;;;;;;;;5011326;28;20456;-65
2021/04/19 08:06:49;;;;;;;28.80;26.27;;;;;;;;;;4992265;28;20990;-65
2021/04/19 08:09:15;;;;;;;27.00;24.60;;;;;;;;;;5005526;28;20461;-65
2021/04/19 08:11:46;;;;;;;28.53;25.93;;;;;;;;;;5011283;28;20933;-65
2021/04/19 08:14:13;;;;;;;27.53;25.03;;;;;;;;;;4998533;28;20805;-66
2021/04/19 08:16:40;;;;;;;12.27;10.57;;;;;;;;;;5010486;28;20996;-65
2021/04/19 08:19:07;;;;;;;26.10;23.70;;;;;;;;;;5004896;28;20449;-65
2021/04/19 08:21:34;;;;;;;30.23;27.40;;;;;;;;;;4993198;28;20446;-65
2021/04/19 08:24:11;;;;;;;29.40;26.70;;;;;;;;;;5001990;28;20450;-64
2021/04/19 08:26:51;;;;;;;28.13;25.53;;;;;;;;;;4999071;28;20466;-65
2021/04/19 08:29:36;;;;;;;28.83;26.23;;;;;;;;;;4994362;28;20511;-64
2021/04/19 08:32:04;;;;;;;28.83;26.20;;;;;;;;;;4998662;28;20456;-64
2021/04/19 08:34:30;;;;;;;27.63;25.13;;;;;;;;;;5012240;28;20449;-65
2021/04/19 08:36:58;;;;;;;26.13;23.73;;;;;;;;;;5013940;28;20988;-65
2021/04/19 08:39:25;;;;;;;26.97;24.57;;;;;;;;;;4998460;28;20454;-65
2021/04/19 08:41:52;;;;;;;24.03;21.90;;;;;;;;;;4995513;28;20461;-66
2021/04/19 08:44:19;;;;;;;22.73;20.73;;;;;;;;;;5008965;28;20973;-65
2021/04/19 08:46:46;;;;;;;19.60;17.97;;;;;;;;;;5002989;28;20468;-65
2021/04/19 08:49:13;;;;;;;20.27;18.57;;;;;;;;;;5004369;28;20489;-63
2021/04/19 08:51:40;;;;;;;20.73;19.03;;;;;;;;;;5014216;28;20484;-61
2021/04/19 08:54:06;;;;;;;22.37;20.47;;;;;;;;;;5014634;28;20453;-63
2021/04/19 08:56:33;;;;;;;21.27;19.37;;;;;;;;;;5013502;28;20473;-63
2021/04/19 08:59:00;;;;;;;21.10;19.27;;;;;;;;;;5014868;28;20460;-63
2021/04/19 09:01:28;;;;;;;19.70;17.70;;;;;;;;;;5009317;28;20550;-63
2021/04/19 09:04:05;;;;;;;21.70;19.87;;;;;;;;;;5012627;28;20458;-62
2021/04/19 09:06:42;;;;;;;22.67;20.67;;;;;;;;;;5012843;28;20911;-63
2021/04/19 09:09:09;;;;;;;23.60;21.50;;;;;;;;;;5013941;28;20868;-63
2021/04/19 09:11:35;;;;;;;22.87;20.77;;;;;;;;;;5004209;28;20473;-62
2021/04/19 09:14:06;;;;;;;23.23;21.10;;;;;;;;;;4994928;28;20447;-62
2021/04/19 09:16:35;;;;;;;23.00;21.00;;;;;;;;;;4999033;28;20560;-61
2021/04/19 09:19:02;;;;;;;20.23;18.33;;;;;;;;;;5007074;28;20457;-62
2021/04/19 09:21:35;;;;;;;19.57;17.97;;;;;;;;;;4995905;28;20837;-60
2021/04/19 09:24:02;;;;;;;18.10;16.60;;;;;;;;;;4994547;28;20513;-59
2021/04/19 09:26:48;;;;;;;19.27;17.57;;;;;;;;;;4998445;28;20945;-59
2021/04/19 09:29:42;;;;;;;20.27;18.67;;;;;;;;;;5007271;28;21131;-60
2021/04/19 09:32:09;;;;;;;20.23;18.53;;;;;;;;;;4988155;28;20529;-61
2021/04/19 09:34:40;;;;;;;19.87;18.27;;;;;;;;;;5013809;28;20546;-60
2021/04/19 09:37:07;;;;;;;18.47;16.97;;;;;;;;;;5010275;28;20497;-60
2021/04/19 09:39:43;;;;;;;19.70;18.10;;;;;;;;;;5014094;28;20456;-60
2021/04/19 09:42:10;;;;;;;18.17;16.57;;;;;;;;;;5005408;28;20450;-60
2021/04/19 09:44:48;;;;;;;19.03;17.43;;;;;;;;;;5009073;28;20455;-59
2021/04/19 09:47:30;;;;;;;20.53;18.60;;;;;;;;;;5004078;28;20886;-60
2021/04/19 09:49:57;;;;;;;18.83;17.23;;;;;;;;;;5008994;28;20452;-61
2021/04/19 09:52:24;;;;;;;18.60;17.10;;;;;;;;;;5003171;28;20447;-60
2021/04/19 09:54:51;;;;;;;18.73;17.20;;;;;;;;;;5011373;28;20957;-60
2021/04/19 09:57:17;;;;;;;19.50;17.83;;;;;;;;;;4994167;28;20852;-60
2021/04/19 09:59:44;;;;;;;17.10;15.63;;;;;;;;;;4997432;28;20527;-60
2021/04/19 10:02:13;;;;;;;18.43;16.93;;;;;;;;;;5007562;28;21010;-59
2021/04/19 10:04:43;;;;;;;17.53;16.13;;;;;;;;;;5012750;28;20450;-59
2021/04/19 10:07:11;;;;;;;19.53;17.97;;;;;;;;;;5002176;28;20906;-60
2021/04/19 10:09:40;;;;;;;20.27;18.27;;;;;;;;;;4998612;28;20458;-60
2021/04/19 10:12:08;;;;;;;18.97;17.37;;;;;;;;;;4996198;28;20474;-60
2021/04/19 10:14:35;;;;;;;21.90;20.00;;;;;;;;;;5011800;28;20449;-59
2021/04/19 10:17:12;;;;;;;19.80;18.10;;;;;;;;;;5010600;28;21051;-60
2021/04/19 10:19:39;;;;;;;15.97;14.50;;;;;;;;;;5009823;28;20452;-60
2021/04/19 10:22:06;;;;;;;16.23;14.63;;;;;;;;;;5013163;28;20453;-60
2021/04/19 10:24:34;;;;;;;14.60;13.30;;;;;;;;;;5012633;28;20454;-60
2021/04/19 10:27:01;;;;;;;14.40;13.20;;;;;;;;;;5012110;28;20468;-61
2021/04/19 10:29:28;;;;;;;14.20;13.00;;;;;;;;;;5012510;28;20457;-60
2021/04/19 10:31:55;;;;;;;14.73;13.30;;;;;;;;;;5003089;28;20462;-61
2021/04/19 10:34:23;;;;;;;14.40;13.20;;;;;;;;;;5012220;28;20456;-60
2021/04/19 10:36:51;;;;;;;15.80;14.37;;;;;;;;;;5011130;28;20494;-60
2021/04/19 10:39:20;;;;;;;15.13;13.93;;;;;;;;;;5005631;28;20911;-60
2021/04/19 10:41:48;;;;;;;13.97;12.87;;;;;;;;;;4995200;28;20989;-61
2021/04/19 10:44:16;;;;;;;12.50;11.40;;;;;;;;;;5014925;28;20500;-61
2021/04/19 10:46:43;;;;;;;13.60;12.40;;;;;;;;;;5015256;28;20995;-61
2021/04/19 10:49:21;;;;;;;14.17;12.90;;;;;;;;;;5009745;28;20496;-61
2021/04/19 10:51:51;;;;;;;12.70;11.70;;;;;;;;;;5013153;28;20900;-61
2021/04/19 10:54:17;;;;;;;13.30;12.00;;;;;;;;;;5001226;28;20550;-60
2021/04/19 10:56:44;;;;;;;12.87;11.87;;;;;;;;;;4992399;28;20993;-61
2021/04/19 10:59:12;;;;;;;12.33;11.33;;;;;;;;;;5004563;28;20465;-60
2021/04/19 11:01:40;;;;;;;13.30;12.20;;;;;;;;;;4993085;28;20450;-61
2021/04/19 11:04:08;;;;;;;12.90;11.90;;;;;;;;;;5006133;28;20453;-60
2021/04/19 11:06:35;;;;;;;11.70;10.70;;;;;;;;;;5011560;28;20504;-60
2021/04/19 11:09:02;;;;;;;11.57;10.57;;;;;;;;;;5030834;22;20871;-66
2021/04/19 11:11:33;;;;;;;10.43;9.57;;;;;;;;;;5024504;28;20452;-66
2021/04/19 11:14:14;;;;;;;11.20;10.30;;;;;;;;;;5025944;28;20455;-66
2021/04/19 11:16:54;;;;;;;10.70;9.90;;;;;;;;;;5031753;28;20480;-65
2021/04/19 11:19:31;;;;;;;10.40;9.60;;;;;;;;;;5026918;28;20475;-66
2021/04/19 11:21:58;;;;;;;12.07;11.07;;;;;;;;;;5032264;28;20437;-66
2021/04/19 11:24:35;;;;;;;11.60;10.70;;;;;;;;;;5015794;28;20448;-66
2021/04/19 11:27:06;;;;;;;11.93;10.83;;;;;;;;;;5012957;28;20446;-66
2021/04/19 11:29:37;;;;;;;11.17;10.30;;;;;;;;;;5027294;28;20472;-66
2021/04/19 11:32:04;;;;;;;11.03;10.07;;;;;;;;;;5019539;28;20449;-66
2021/04/19 11:34:35;;;;;;;10.03;9.13;;;;;;;;;;5027680;28;20459;-66
2021/04/19 11:37:01;;;;;;;8.80;8.10;;;;;;;;;;5030646;28;20484;-66
2021/04/19 11:39:32;;;;;;;10.00;9.30;;;;;;;;;;5027768;28;20480;-66
2021/04/19 11:41:58;;;;;;;8.47;7.87;;;;;;;;;;5024401;28;20448;-66
2021/04/19 11:44:40;;;;;;;9.77;9.07;;;;;;;;;;5018495;28;20457;-66
2021/04/19 11:47:07;;;;;;;8.43;7.83;;;;;;;;;;5011521;28;20472;-66
2021/04/19 11:49:34;;;;;;;8.93;8.23;;;;;;;;;;5012367;28;20473;-66
2021/04/19 11:52:00;;;;;;;8.43;7.73;;;;;;;;;;5023902;28;20947;-66
2021/04/19 11:54:27;;;;;;;8.07;7.47;;;;;;;;;;5030831;28;20451;-66
2021/04/19 11:56:54;;;;;;;7.80;7.10;;;;;;;;;;5024758;28;20489;-66
2021/04/19 11:59:20;;;;;;;8.37;7.77;;;;;;;;;;5019648;28;20470;-65
2021/04/19 12:01:47;;;;;;;7.53;6.93;;;;;;;;;;5017884;28;20456;-65
2021/04/19 12:04:15;;;;;;;6.43;5.93;;;;;;;;;;5012069;28;20616;-65
2021/04/19 12:06:41;;;;;;;6.03;5.53;;;;;;;;;;5012931;28;20448;-65
2021/04/19 12:09:08;;;;;;;6.03;5.63;;;;;;;;;;5023002;28;20480;-64
2021/04/19 12:11:35;;;;;;;5.70;5.30;;;;;;;;;;5035218;28;20458;-66
2021/04/19 12:14:01;;;;;;;6.00;5.60;;;;;;;;;;5018139;28;20529;-65
2021/04/19 12:16:28;;;;;;;6.00;5.50;;;;;;;;;;5015205;28;20485;-65
2021/04/19 12:18:55;;;;;;;6.20;5.73;;;;;;;;;;5030016;28;20833;-65
2021/04/19 12:21:22;;;;;;;5.43;5.03;;;;;;;;;;5035284;28;20463;-66
2021/04/19 12:23:49;;;;;;;5.93;5.50;;;;;;;;;;5034380;28;20448;-65
2021/04/19 12:26:16;;;;;;;4.70;4.30;;;;;;;;;;5034606;28;21008;-65
2021/04/19 12:28:43;;;;;;;5.20;4.80;;;;;;;;;;5034159;28;21142;-64
2021/04/19 12:31:09;;;;;;;4.77;4.37;;;;;;;;;;5034189;28;20445;-65
2021/04/19 12:33:36;;;;;;;4.60;4.30;;;;;;;;;;5034799;28;20940;-66
2021/04/19 12:36:02;;;;;;;4.50;4.20;;;;;;;;;;5034399;28;20482;-65
2021/04/19 12:38:30;;;;;;;4.90;4.50;;;;;;;;;;5034778;28;20883;-66
2021/04/19 12:40:57;;;;;;;4.83;4.43;;;;;;;;;;5033948;28;20987;-65
2021/04/19 12:43:23;;;;;;;5.10;4.70;;;;;;;;;;5032660;28;20895;-65
2021/04/19 12:45:50;;;;;;;4.77;4.37;;;;;;;;;;5028390;28;20449;-65
2021/04/19 12:48:16;;;;;;;4.67;4.27;;;;;;;;;;5014627;28;20442;-64
2021/04/19 12:50:43;;;;;;;4.87;4.47;;;;;;;;;;5019449;28;20449;-65
2021/04/19 12:53:10;;;;;;;6.60;5.10;;;;;;;;;;5034588;28;20814;-66
2021/04/19 12:55:38;;;;;;;4.80;4.40;;;;;;;;;;5034212;28;20548;-65
2021/04/19 12:58:05;;;;;;;5.83;5.33;;;;;;;;;;5034431;28;20498;-65
2021/04/19 13:00:32;;;;;;;5.53;4.93;;;;;;;;;;5014685;28;20441;-65
2021/04/19 13:02:58;;;;;;;6.50;5.90;;;;;;;;;;5014835;28;20445;-65
2021/04/19 13:05:25;;;;;;;5.73;5.23;;;;;;;;;;5033954;28;20511;-65
2021/04/19 13:07:51;;;;;;;5.17;4.77;;;;;;;;;;5033687;28;20502;-65
2021/04/19 13:10:18;;;;;;;2.80;2.50;;;;;;;;;;5015493;28;20504;-66
2021/04/19 13:12:46;;;;;;;5.17;4.60;;;;;;;;;;5014517;28;20446;-66
2021/04/19 13:15:13;;;;;;;6.10;5.60;;;;;;;;;;5032111;28;20444;-66
2021/04/19 13:17:40;;;;;;;8.80;8.10;;;;;;;;;;5031626;28;20514;-66
2021/04/19 13:20:07;;;;;;;10.37;9.47;;;;;;;;;;5022602;28;20493;-66
2021/04/19 13:22:34;;;;;;;10.23;9.43;;;;;;;;;;5013365;28;20495;-65
2021/04/19 13:25:02;;;;;;;9.47;8.67;;;;;;;;;;5032874;28;20514;-65
2021/04/19 13:27:29;;;;;;;9.40;8.50;;;;;;;;;;5033578;28;20460;-66
2021/04/19 13:29:56;;;;;;;9.30;8.47;;;;;;;;;;5024189;28;20469;-65
2021/04/19 13:32:23;;;;;;;9.43;8.70;;;;;;;;;;5034178;28;20484;-65
2021/04/19 13:34:49;;;;;;;11.73;10.73;;;;;;;;;;5034316;28;20936;-65
2021/04/19 13:37:16;;;;;;;9.97;9.20;;;;;;;;;;5033777;28;20483;-65
2021/04/19 13:39:43;;;;;;;10.17;9.27;;;;;;;;;;5033592;28;21038;-66
2021/04/19 13:42:09;;;;;;;11.00;10.10;;;;;;;;;;5033526;28;20544;-65
2021/04/19 13:44:36;;;;;;;10.87;9.87;;;;;;;;;;5033186;28;20455;-64
2021/04/19 13:47:03;;;;;;;9.27;8.57;;;;;;;;;;5033369;28;20449;-64
2021/04/19 13:49:30;;;;;;;10.47;9.57;;;;;;;;;;5033761;28;20480;-65
2021/04/19 13:51:57;;;;;;;10.17;8.77;;;;;;;;;;5033594;28;20487;-64
2021/04/19 13:54:24;;;;;;;10.37;9.50;;;;;;;;;;5033501;28;20449;-65
2021/04/19 13:56:51;;;;;;;10.30;9.40;;;;;;;;;;5033363;28;20479;-65
2021/04/19 13:59:18;;;;;;;9.83;8.73;;;;;;;;;;5033377;28;20538;-65
2021/04/19 14:01:44;;;;;;;8.83;7.93;;;;;;;;;;5033547;28;20531;-64
2021/04/19 14:04:12;;;;;;;10.00;9.00;;;;;;;;;;5033486;28;20489;-64
2021/04/19 14:06:38;;;;;;;8.53;7.80;;;;;;;;;;5033350;28;20632;-64
2021/04/19 14:09:05;;;;;;;10.03;8.17;;;;;;;;;;5034504;28;20488;-64
2021/04/19 14:11:32;;;;;;;8.93;8.13;;;;;;;;;;5033139;28;20998;-64
2021/04/19 14:13:58;;;;;;;9.00;8.27;;;;;;;;;;5033346;28;20453;-64
2021/04/19 14:16:25;;;;;;;8.97;8.17;;;;;;;;;;5033402;28;20449;-64
2021/04/19 14:18:52;;;;;;;8.03;6.97;;;;;;;;;;5031422;28;20473;-64
2021/04/19 14:21:20;;;;;;;7.90;7.17;;;;;;;;;;5033022;28;20940;-66
2021/04/19 14:23:46;;;;;;;8.20;7.50;;;;;;;;;;5033267;28;20498;-64
2021/04/19 14:26:13;;;;;;;8.70;8.00;;;;;;;;;;5032807;28;21005;-66
2021/04/19 14:28:39;;;;;;;7.23;6.63;;;;;;;;;;5033094;28;20460;-66